Time;durP1;ratioP1;P1;durP2;ratioP2;P2;SDS_P1;SDS_P2;PMS_P1;PMS_P2;Temp;Humidity;BMP_temperature;BMP_pressure;BME280_temperature;BME280_humidity;BME280_pressure;Samples;Min_cycle;Max_cycle;Signal;HPM_P1;HPM_P2
2022/10/23 00:02:26;;;;;;;21.10;15.93;;;;;;;;;;1820331;77;21186;-82
2022/10/23 00:04:57;;;;;;;21.12;16.55;;;;;;;;;;1842272;76;21659;-81
2022/10/23 00:07:27;;;;;;;22.02;16.52;;;;;;;;;;1867451;75;21077;-83
2022/10/23 00:09:58;;;;;;;21.60;15.03;;;;;;;;;;1856941;76;21163;-81
2022/10/23 00:12:29;;;;;;;19.05;15.43;;;;;;;;;;1828538;77;21179;-83
2022/10/23 00:14:59;;;;;;;22.52;15.23;;;;;;;;;;1880808;75;21192;-81
2022/10/23 00:17:31;;;;;;;18.75;14.68;;;;;;;;;;1875889;76;21722;-83
2022/10/23 00:20:01;;;;;;;20.37;14.43;;;;;;;;;;1875902;75;21621;-83
2022/10/23 00:22:31;;;;;;;19.02;14.33;;;;;;;;;;1878993;75;21192;-80
2022/10/23 00:25:01;;;;;;;22.85;16.45;;;;;;;;;;1859410;76;21177;-84
2022/10/23 00:27:32;;;;;;;16.97;14.65;;;;;;;;;;1861995;75;21118;-83
2022/10/23 00:30:02;;;;;;;29.25;21.37;;;;;;;;;;1884286;75;21099;-84
2022/10/23 00:32:32;;;;;;;28.52;22.67;;;;;;;;;;1875534;75;21149;-83
2022/10/23 00:35:02;;;;;;;26.42;16.62;;;;;;;;;;1876739;76;21580;-86
2022/10/23 00:37:33;;;;;;;20.72;16.20;;;;;;;;;;1883690;75;21091;-82
2022/10/23 00:40:04;;;;;;;24.90;15.55;;;;;;;;;;1803230;77;21149;-81
2022/10/23 00:42:34;;;;;;;19.40;14.07;;;;;;;;;;1803082;78;21572;-82
2022/10/23 00:45:09;;;;;;;16.67;13.08;;;;;;;;;;1849744;76;21095;-83
2022/10/23 00:47:39;;;;;;;17.73;12.70;;;;;;;;;;1865168;76;21594;-83
2022/10/23 00:50:10;;;;;;;35.15;23.67;;;;;;;;;;1866621;76;21088;-84
2022/10/23 00:52:56;;;;;;;24.98;19.80;;;;;;;;;;1850513;75;21154;-82
2022/10/23 00:55:28;;;;;;;24.43;16.30;;;;;;;;;;1860891;75;21272;-86
2022/10/23 00:58:01;;;;;;;21.15;14.20;;;;;;;;;;1860504;76;21130;-85
2022/10/23 01:00:53;;;;;;;19.10;14.18;;;;;;;;;;1849823;76;21202;-84
2022/10/23 01:03:27;;;;;;;15.55;12.78;;;;;;;;;;1857961;76;21213;-82
2022/10/23 01:06:20;;;;;;;21.52;13.98;;;;;;;;;;1861701;76;21171;-83
2022/10/23 01:08:59;;;;;;;16.48;13.95;;;;;;;;;;1860227;76;21136;-84
2022/10/23 01:12:04;;;;;;;22.07;15.18;;;;;;;;;;1810862;76;21161;-83
2022/10/23 01:14:42;;;;;;;18.00;13.98;;;;;;;;;;1846217;76;21087;-82
2022/10/23 01:17:13;;;;;;;19.70;14.28;;;;;;;;;;1857661;76;21209;-82
2022/10/23 01:20:01;;;;;;;19.30;13.80;;;;;;;;;;1857017;76;21159;-83
2022/10/23 01:22:49;;;;;;;17.98;14.28;;;;;;;;;;1833701;77;21127;-82
2022/10/23 01:25:21;;;;;;;15.53;13.50;;;;;;;;;;1827852;77;21150;-83
2022/10/23 01:27:52;;;;;;;19.80;13.70;;;;;;;;;;1828698;77;21178;-82
2022/10/23 01:30:22;;;;;;;17.42;13.00;;;;;;;;;;1873649;75;21161;-83
2022/10/23 01:32:54;;;;;;;16.12;12.98;;;;;;;;;;1872301;76;21272;-83
2022/10/23 01:35:31;;;;;;;14.55;12.18;;;;;;;;;;1874561;75;21240;-82
2022/10/23 01:38:03;;;;;;;17.02;12.55;;;;;;;;;;1873016;75;21639;-84
2022/10/23 01:40:40;;;;;;;16.17;11.70;;;;;;;;;;1870743;75;21224;-83
2022/10/23 01:43:16;;;;;;;13.75;11.35;;;;;;;;;;1878840;76;21063;-82
2022/10/23 01:45:47;;;;;;;16.85;12.18;;;;;;;;;;1874417;75;21773;-83
2022/10/23 01:48:21;;;;;;;14.70;11.85;;;;;;;;;;1868995;76;21134;-84
2022/10/23 01:50:53;;;;;;;16.35;12.10;;;;;;;;;;1860290;76;21177;-83
2022/10/23 01:53:25;;;;;;;16.27;12.07;;;;;;;;;;1821106;77;21571;-82
2022/10/23 01:55:55;;;;;;;17.60;11.95;;;;;;;;;;1819895;78;21143;-82
2022/10/23 01:58:28;;;;;;;16.32;11.57;;;;;;;;;;1874671;76;21819;-85
2022/10/23 02:01:02;;;;;;;20.45;11.35;;;;;;;;;;1866058;75;21146;-84
2022/10/23 02:03:35;;;;;;;15.10;10.95;;;;;;;;;;1867756;76;21149;-83
2022/10/23 02:06:06;;;;;;;15.60;10.65;;;;;;;;;;1876788;76;21158;-84
2022/10/23 02:08:36;;;;;;;15.23;11.03;;;;;;;;;;1874646;75;21043;-85
2022/10/23 02:11:20;;;;;;;16.97;11.68;;;;;;;;;;1868599;76;21180;-84
2022/10/23 02:13:51;;;;;;;14.63;10.00;;;;;;;;;;1827787;77;21260;-85
2022/10/23 02:16:33;;;;;;;14.47;10.63;;;;;;;;;;1869225;76;21700;-83
2022/10/23 02:19:21;;;;;;;15.23;10.55;;;;;;;;;;1864184;76;21169;-85
2022/10/23 02:22:02;;;;;;;13.85;10.28;;;;;;;;;;1841835;76;21716;-84
2022/10/23 02:24:38;;;;;;;15.43;10.75;;;;;;;;;;1855000;76;21143;-85
2022/10/23 02:27:09;;;;;;;15.78;11.10;;;;;;;;;;1853689;76;21591;-84
2022/10/23 02:29:41;;;;;;;15.65;10.00;;;;;;;;;;1867525;76;21827;-87
2022/10/23 02:32:14;;;;;;;15.18;11.40;;;;;;;;;;1864708;76;21481;-85
2022/10/23 02:34:44;;;;;;;14.73;10.90;;;;;;;;;;1882290;75;21114;-84
2022/10/23 02:37:14;;;;;;;16.50;11.57;;;;;;;;;;1868402;76;21137;-85
2022/10/23 02:39:45;;;;;;;14.98;10.55;;;;;;;;;;1860153;76;21564;-85
2022/10/23 02:42:19;;;;;;;14.40;11.10;;;;;;;;;;1856466;76;21168;-85
2022/10/23 02:44:49;;;;;;;17.77;10.68;;;;;;;;;;1874138;76;21117;-82
2022/10/23 02:47:39;;;;;;;16.05;11.43;;;;;;;;;;1856738;76;21708;-84
2022/10/23 02:50:11;;;;;;;15.43;11.43;;;;;;;;;;1872058;76;21243;-84
2022/10/23 02:52:51;;;;;;;16.55;10.40;;;;;;;;;;1847245;76;21094;-83
2022/10/23 02:55:29;;;;;;;14.80;11.48;;;;;;;;;;1858674;76;21578;-82
2022/10/23 02:58:16;;;;;;;14.45;11.28;;;;;;;;;;1871997;76;21079;-83
2022/10/23 03:00:36;;;;;;;17.55;10.45;;;;;;;;;;1860705;76;21114;-82
2022/10/23 03:03:07;;;;;;;14.70;11.57;;;;;;;;;;1869359;76;21261;-84
2022/10/23 03:05:38;;;;;;;15.72;11.88;;;;;;;;;;1843419;77;21132;-83
2022/10/23 03:08:09;;;;;;;15.38;10.98;;;;;;;;;;1831969;77;21689;-84
2022/10/23 03:10:42;;;;;;;13.55;10.82;;;;;;;;;;1858509;76;21145;-83
2022/10/23 03:13:19;;;;;;;15.03;11.70;;;;;;;;;;1855006;76;21161;-83
2022/10/23 03:15:48;;;;;;;12.95;10.58;;;;;;;;;;1862263;76;21090;-84
2022/10/23 03:18:20;;;;;;;15.88;10.98;;;;;;;;;;1868334;76;21098;-84
2022/10/23 03:20:56;;;;;;;17.05;11.63;;;;;;;;;;1860978;76;21130;-82
2022/10/23 03:23:26;;;;;;;15.78;10.82;;;;;;;;;;1857173;76;21154;-83
2022/10/23 03:25:57;;;;;;;16.90;11.15;;;;;;;;;;1854463;76;21172;-82
2022/10/23 03:28:27;;;;;;;16.65;11.05;;;;;;;;;;1859219;76;21180;-83
2022/10/23 03:30:57;;;;;;;11.83;10.58;;;;;;;;;;1860796;76;21586;-82
2022/10/23 03:33:27;;;;;;;13.48;10.70;;;;;;;;;;1865874;76;21208;-84
2022/10/23 03:35:58;;;;;;;12.95;10.65;;;;;;;;;;1861297;76;21192;-83
2022/10/23 03:38:28;;;;;;;12.43;10.53;;;;;;;;;;1862749;76;21166;-83
2022/10/23 03:40:58;;;;;;;15.10;11.50;;;;;;;;;;1881056;76;21106;-83
2022/10/23 03:43:28;;;;;;;13.15;10.58;;;;;;;;;;1871387;76;21192;-83
2022/10/23 03:46:00;;;;;;;14.47;10.48;;;;;;;;;;1876979;76;21122;-85
2022/10/23 03:48:31;;;;;;;15.88;10.93;;;;;;;;;;1870619;76;21106;-84
2022/10/23 03:51:01;;;;;;;16.05;10.50;;;;;;;;;;1879920;76;21145;-84
2022/10/23 03:53:32;;;;;;;14.50;11.05;;;;;;;;;;1872917;76;21110;-83
2022/10/23 03:56:02;;;;;;;14.45;9.98;;;;;;;;;;1874846;76;21150;-82
2022/10/23 03:58:32;;;;;;;13.32;10.08;;;;;;;;;;1867988;76;21538;-82
2022/10/23 04:01:03;;;;;;;15.10;11.10;;;;;;;;;;1856262;76;21740;-81
2022/10/23 04:03:33;;;;;;;14.30;10.15;;;;;;;;;;1880614;76;21119;-84
2022/10/23 04:06:03;;;;;;;15.45;10.65;;;;;;;;;;1882957;76;21720;-83
2022/10/23 04:08:34;;;;;;;11.63;9.70;;;;;;;;;;1879502;76;21164;-82
2022/10/23 04:11:04;;;;;;;14.47;10.05;;;;;;;;;;1882553;76;21204;-83
2022/10/23 04:13:35;;;;;;;16.90;10.35;;;;;;;;;;1871331;76;21212;-82
2022/10/23 04:16:05;;;;;;;15.95;11.63;;;;;;;;;;1881277;76;21125;-82
2022/10/23 04:18:35;;;;;;;11.97;9.90;;;;;;;;;;1880118;76;21051;-81
2022/10/23 04:21:06;;;;;;;21.48;10.68;;;;;;;;;;1872527;76;21071;-84
2022/10/23 04:23:36;;;;;;;11.38;9.78;;;;;;;;;;1866333;76;21059;-83
2022/10/23 04:26:06;;;;;;;11.68;10.18;;;;;;;;;;1866016;76;21184;-83
2022/10/23 04:28:37;;;;;;;13.53;10.28;;;;;;;;;;1860525;76;21589;-83
2022/10/23 04:31:07;;;;;;;14.53;10.43;;;;;;;;;;1869354;76;21185;-83
2022/10/23 04:33:38;;;;;;;14.00;10.25;;;;;;;;;;1860392;76;21196;-83
2022/10/23 04:36:09;;;;;;;12.15;10.18;;;;;;;;;;1858916;76;21487;-83
2022/10/23 04:38:49;;;;;;;11.38;9.43;;;;;;;;;;1860923;75;21165;-83
2022/10/23 04:41:26;;;;;;;11.70;9.55;;;;;;;;;;1856801;76;21213;-82
2022/10/23 04:43:53;;;;;;;14.63;9.68;;;;;;;;;;1857552;76;21209;-82
2022/10/23 04:46:25;;;;;;;13.10;8.73;;;;;;;;;;1865136;76;21609;-82
2022/10/23 04:48:56;;;;;;;12.35;9.45;;;;;;;;;;1865009;76;21079;-83
2022/10/23 04:51:26;;;;;;;12.68;9.45;;;;;;;;;;1856127;76;21131;-83
2022/10/23 04:53:57;;;;;;;14.68;9.73;;;;;;;;;;1876295;76;21075;-82
2022/10/23 04:56:27;;;;;;;14.50;9.15;;;;;;;;;;1866665;76;21084;-82
2022/10/23 04:58:57;;;;;;;12.03;8.98;;;;;;;;;;1853718;76;21146;-81
2022/10/23 05:01:28;;;;;;;13.95;8.93;;;;;;;;;;1855894;76;21602;-82
2022/10/23 05:04:00;;;;;;;14.07;9.28;;;;;;;;;;1845973;76;21078;-83
2022/10/23 05:06:30;;;;;;;12.63;9.23;;;;;;;;;;1857750;76;21636;-83
2022/10/23 05:09:01;;;;;;;16.87;10.65;;;;;;;;;;1856655;76;21105;-81
2022/10/23 05:11:32;;;;;;;14.40;9.98;;;;;;;;;;1863025;76;21188;-81
2022/10/23 05:14:02;;;;;;;12.28;9.78;;;;;;;;;;1846616;76;21122;-83
2022/10/23 05:16:34;;;;;;;12.43;9.35;;;;;;;;;;1869924;76;21067;-82
2022/10/23 05:19:07;;;;;;;13.83;9.93;;;;;;;;;;1853043;76;21197;-81
2022/10/23 05:21:37;;;;;;;12.53;10.20;;;;;;;;;;1861280;76;21178;-82
2022/10/23 05:24:08;;;;;;;13.05;9.90;;;;;;;;;;1866583;76;21721;-82
2022/10/23 05:26:38;;;;;;;14.78;10.40;;;;;;;;;;1864268;76;21173;-83
2022/10/23 05:29:09;;;;;;;14.65;10.05;;;;;;;;;;1873263;76;21082;-83
2022/10/23 05:31:39;;;;;;;14.15;10.20;;;;;;;;;;1842861;76;21158;-85
2022/10/23 05:34:10;;;;;;;12.82;10.75;;;;;;;;;;1872680;76;21158;-81
2022/10/23 05:36:41;;;;;;;14.78;11.18;;;;;;;;;;1854360;76;21495;-82
2022/10/23 05:39:12;;;;;;;16.30;10.13;;;;;;;;;;1875496;76;21138;-82
2022/10/23 05:41:43;;;;;;;14.00;11.03;;;;;;;;;;1873440;76;21174;-82
2022/10/23 05:44:13;;;;;;;15.25;10.28;;;;;;;;;;1861694;76;21137;-83
2022/10/23 05:46:44;;;;;;;14.30;10.63;;;;;;;;;;1861013;76;21094;-83
2022/10/23 05:49:14;;;;;;;13.25;10.65;;;;;;;;;;1873330;76;21176;-83
2022/10/23 05:51:45;;;;;;;15.53;10.20;;;;;;;;;;1857853;76;21178;-83
2022/10/23 05:54:17;;;;;;;13.62;10.45;;;;;;;;;;1879065;76;21256;-82
2022/10/23 05:56:47;;;;;;;13.15;11.05;;;;;;;;;;1861700;76;21138;-82
2022/10/23 05:59:17;;;;;;;13.62;11.18;;;;;;;;;;1871540;76;21090;-83
2022/10/23 06:01:50;;;;;;;13.38;10.78;;;;;;;;;;1862499;76;21122;-83
2022/10/23 06:04:21;;;;;;;14.58;11.38;;;;;;;;;;1857313;76;21243;-82
2022/10/23 06:06:52;;;;;;;13.62;10.65;;;;;;;;;;1861965;76;21177;-83
2022/10/23 06:09:22;;;;;;;16.07;10.72;;;;;;;;;;1858221;76;21403;-82
2022/10/23 06:11:52;;;;;;;17.10;10.82;;;;;;;;;;1862780;76;21134;-82
2022/10/23 06:14:27;;;;;;;12.93;10.38;;;;;;;;;;1862473;76;21133;-82
2022/10/23 06:16:54;;;;;;;14.15;10.90;;;;;;;;;;1860354;76;21103;-84
2022/10/23 06:19:24;;;;;;;14.13;10.70;;;;;;;;;;1862606;76;21189;-80
2022/10/23 06:21:55;;;;;;;12.30;10.15;;;;;;;;;;1863997;76;21086;-83
2022/10/23 06:24:28;;;;;;;13.40;10.60;;;;;;;;;;1863705;76;21236;-81
2022/10/23 06:26:58;;;;;;;13.03;10.70;;;;;;;;;;1860589;76;21822;-82
2022/10/23 06:29:29;;;;;;;12.95;10.40;;;;;;;;;;1865285;76;21204;-82
2022/10/23 06:31:59;;;;;;;14.58;10.20;;;;;;;;;;1866296;76;21157;-81
2022/10/23 06:34:29;;;;;;;15.90;10.53;;;;;;;;;;1868210;76;21134;-82
2022/10/23 06:37:02;;;;;;;16.10;10.68;;;;;;;;;;1855275;76;21173;-82
2022/10/23 06:39:34;;;;;;;11.85;10.30;;;;;;;;;;1856588;76;21153;-83
2022/10/23 06:42:04;;;;;;;12.40;10.63;;;;;;;;;;1857495;76;21657;-81
2022/10/23 06:44:35;;;;;;;12.37;10.55;;;;;;;;;;1856944;76;21457;-81
2022/10/23 06:47:05;;;;;;;14.20;10.75;;;;;;;;;;1856253;76;21139;-82
2022/10/23 06:49:36;;;;;;;14.65;10.65;;;;;;;;;;1857199;76;21495;-83
2022/10/23 06:52:06;;;;;;;11.35;9.90;;;;;;;;;;1847395;76;21087;-83
2022/10/23 06:54:38;;;;;;;15.90;9.93;;;;;;;;;;1856488;76;21149;-83
2022/10/23 06:57:08;;;;;;;12.15;10.00;;;;;;;;;;1859504;76;21126;-83
2022/10/23 06:59:38;;;;;;;15.50;10.90;;;;;;;;;;1859845;76;21865;-82
2022/10/23 07:02:09;;;;;;;15.20;10.40;;;;;;;;;;1859293;76;21123;-85
2022/10/23 07:04:46;;;;;;;13.28;10.28;;;;;;;;;;1862673;76;21087;-82
2022/10/23 07:07:22;;;;;;;14.63;9.88;;;;;;;;;;1857427;76;21168;-81
2022/10/23 07:09:52;;;;;;;12.55;10.58;;;;;;;;;;1868079;76;21138;-82
2022/10/23 07:12:22;;;;;;;15.03;10.68;;;;;;;;;;1859082;76;21602;-82
2022/10/23 07:15:02;;;;;;;16.57;10.95;;;;;;;;;;1870878;76;21086;-83
2022/10/23 07:17:32;;;;;;;12.25;10.13;;;;;;;;;;1856237;76;21118;-82
2022/10/23 07:20:02;;;;;;;13.80;10.18;;;;;;;;;;1862400;76;21111;-82
2022/10/23 07:22:32;;;;;;;13.88;10.28;;;;;;;;;;1864881;76;21118;-83
2022/10/23 07:25:03;;;;;;;12.93;10.40;;;;;;;;;;1847389;76;21168;-84
2022/10/23 07:27:34;;;;;;;14.05;10.88;;;;;;;;;;1868694;76;21228;-83
2022/10/23 07:30:05;;;;;;;17.48;10.60;;;;;;;;;;1851809;76;21131;-84
2022/10/23 07:32:35;;;;;;;14.80;10.03;;;;;;;;;;1871654;76;21107;-82
2022/10/23 07:35:11;;;;;;;14.80;10.80;;;;;;;;;;1879559;76;21158;-83
2022/10/23 07:37:45;;;;;;;17.50;10.70;;;;;;;;;;1867292;76;21654;-82
2022/10/23 07:40:16;;;;;;;12.18;9.70;;;;;;;;;;1865378;76;21119;-82
2022/10/23 07:42:49;;;;;;;11.03;9.75;;;;;;;;;;1859853;76;21236;-81
2022/10/23 07:45:22;;;;;;;14.90;10.55;;;;;;;;;;1849980;76;21111;-83
2022/10/23 07:47:53;;;;;;;13.35;10.15;;;;;;;;;;1856736;76;21118;-83
2022/10/23 07:50:24;;;;;;;11.95;10.03;;;;;;;;;;1857137;76;21051;-83
2022/10/23 07:52:57;;;;;;;13.68;10.48;;;;;;;;;;1872862;76;21082;-82
2022/10/23 07:55:27;;;;;;;13.85;10.68;;;;;;;;;;1863710;76;21145;-82
2022/10/23 07:57:59;;;;;;;12.58;10.03;;;;;;;;;;1855499;76;21067;-84
2022/10/23 08:00:29;;;;;;;13.18;9.98;;;;;;;;;;1870294;76;21220;-82
2022/10/23 08:03:01;;;;;;;11.05;9.83;;;;;;;;;;1858049;76;21082;-82
2022/10/23 08:05:31;;;;;;;13.68;9.80;;;;;;;;;;1850221;76;21141;-84
2022/10/23 08:08:01;;;;;;;14.70;10.50;;;;;;;;;;1855819;76;21098;-85
2022/10/23 08:10:33;;;;;;;13.95;10.23;;;;;;;;;;1860918;76;21595;-84
2022/10/23 08:13:03;;;;;;;17.12;10.58;;;;;;;;;;1863455;76;21209;-82
2022/10/23 08:15:35;;;;;;;16.20;10.75;;;;;;;;;;1851424;76;21204;-76
2022/10/23 08:18:08;;;;;;;15.53;10.80;;;;;;;;;;1866394;76;21216;-78
2022/10/23 08:20:39;;;;;;;11.53;10.40;;;;;;;;;;1873947;76;21150;-79
2022/10/23 08:23:11;;;;;;;13.90;11.43;;;;;;;;;;1867377;76;21568;-78
2022/10/23 08:25:42;;;;;;;16.30;11.05;;;;;;;;;;1861759;76;21098;-78
2022/10/23 08:28:12;;;;;;;13.10;9.75;;;;;;;;;;1853477;76;21533;-77
2022/10/23 08:30:43;;;;;;;14.53;10.28;;;;;;;;;;1855331;76;21657;-77
2022/10/23 08:33:14;;;;;;;13.38;10.68;;;;;;;;;;1848245;76;21571;-78
2022/10/23 08:35:45;;;;;;;14.90;11.08;;;;;;;;;;1849148;76;21198;-78
2022/10/23 08:38:16;;;;;;;14.55;9.65;;;;;;;;;;1835944;77;21450;-78
2022/10/23 08:40:47;;;;;;;12.10;10.55;;;;;;;;;;1863404;76;21165;-79
2022/10/23 08:46:09;;;;;;;15.63;12.45;;;;;;;;;;1891095;73;21180;-78
2022/10/23 08:48:41;;;;;;;17.02;11.33;;;;;;;;;;1907721;73;21102;-79
2022/10/23 08:51:12;;;;;;;15.93;10.75;;;;;;;;;;1900222;75;21530;-77
2022/10/23 08:53:52;;;;;;;15.50;10.68;;;;;;;;;;1897845;75;21482;-79
2022/10/23 08:56:26;;;;;;;13.35;9.75;;;;;;;;;;1876619;76;21129;-77
2022/10/23 08:58:57;;;;;;;14.13;10.65;;;;;;;;;;1877158;75;21172;-78
2022/10/23 09:01:28;;;;;;;12.70;10.48;;;;;;;;;;1919343;73;21130;-78
2022/10/23 09:04:00;;;;;;;14.40;10.20;;;;;;;;;;1945809;73;21125;-77
2022/10/23 09:06:36;;;;;;;13.78;9.25;;;;;;;;;;1884032;75;21097;-76
2022/10/23 09:09:11;;;;;;;12.65;9.78;;;;;;;;;;1898190;73;21135;-75
2022/10/23 09:11:42;;;;;;;12.93;10.05;;;;;;;;;;1894940;73;21229;-76
2022/10/23 09:14:14;;;;;;;14.33;10.00;;;;;;;;;;1898222;74;21725;-77
2022/10/23 09:17:02;;;;;;;13.10;9.43;;;;;;;;;;1885754;73;21114;-76
2022/10/23 09:19:32;;;;;;;13.88;9.45;;;;;;;;;;1893410;74;21133;-78
2022/10/23 09:22:03;;;;;;;12.25;9.58;;;;;;;;;;1901387;75;21136;-76
2022/10/23 09:24:33;;;;;;;12.65;9.60;;;;;;;;;;1890742;75;21139;-77
2022/10/23 09:27:07;;;;;;;11.00;9.30;;;;;;;;;;1896033;75;21121;-76
2022/10/23 09:29:37;;;;;;;11.18;9.50;;;;;;;;;;1906833;73;22381;-76
2022/10/23 09:32:08;;;;;;;12.30;9.28;;;;;;;;;;1806964;78;21615;-77
2022/10/23 09:34:40;;;;;;;12.93;9.18;;;;;;;;;;1897686;73;21175;-75
2022/10/23 09:37:24;;;;;;;12.00;8.80;;;;;;;;;;1905967;73;21250;-76
2022/10/23 09:40:01;;;;;;;12.37;9.78;;;;;;;;;;1904254;73;21147;-75
2022/10/23 09:42:32;;;;;;;11.78;8.95;;;;;;;;;;1895689;75;21123;-78
2022/10/23 09:45:03;;;;;;;12.07;9.45;;;;;;;;;;1898560;75;21207;-76
2022/10/23 09:47:37;;;;;;;13.68;10.35;;;;;;;;;;1903072;75;21208;-75
2022/10/23 09:50:08;;;;;;;13.20;9.40;;;;;;;;;;1887678;75;21105;-77
2022/10/23 09:52:39;;;;;;;14.70;9.15;;;;;;;;;;1901559;73;21570;-76
2022/10/23 09:55:22;;;;;;;11.85;9.68;;;;;;;;;;1909786;75;21217;-77
2022/10/23 09:57:53;;;;;;;12.58;9.68;;;;;;;;;;1891082;73;21153;-76
2022/10/23 10:00:25;;;;;;;14.00;10.35;;;;;;;;;;1905535;75;21064;-78
2022/10/23 10:02:57;;;;;;;15.90;9.48;;;;;;;;;;1891578;75;21156;-77
2022/10/23 10:05:28;;;;;;;11.40;9.23;;;;;;;;;;1897460;75;21147;-77
2022/10/23 10:08:00;;;;;;;14.40;9.78;;;;;;;;;;1904408;75;21129;-77
2022/10/23 10:10:41;;;;;;;12.35;9.50;;;;;;;;;;1871137;75;21202;-76
2022/10/23 10:13:30;;;;;;;12.50;9.38;;;;;;;;;;1837593;77;21386;-78
2022/10/23 10:16:22;;;;;;;13.58;10.08;;;;;;;;;;1871134;75;21201;-77
2022/10/23 10:18:57;;;;;;;17.17;9.78;;;;;;;;;;1901321;75;21060;-78
2022/10/23 10:21:31;;;;;;;12.88;10.13;;;;;;;;;;1885194;75;21245;-78
2022/10/23 10:24:03;;;;;;;13.00;10.28;;;;;;;;;;1860086;75;21133;-77
2022/10/23 10:26:49;;;;;;;14.20;10.25;;;;;;;;;;1861627;75;21180;-77
2022/10/23 10:29:29;;;;;;;14.73;11.08;;;;;;;;;;1873226;74;21127;-77
2022/10/23 10:32:02;;;;;;;13.08;11.03;;;;;;;;;;1862705;75;21146;-77
2022/10/23 10:34:39;;;;;;;14.60;10.72;;;;;;;;;;1822514;76;21213;-79
2022/10/23 10:37:23;;;;;;;18.77;13.62;;;;;;;;;;1841856;77;21260;-78
2022/10/23 10:40:05;;;;;;;19.40;14.00;;;;;;;;;;1840028;76;21224;-76
2022/10/23 10:42:39;;;;;;;17.05;13.05;;;;;;;;;;1832529;77;21145;-76
2022/10/23 10:45:28;;;;;;;28.10;15.58;;;;;;;;;;1901364;74;21578;-78
2022/10/23 10:48:03;;;;;;;21.20;14.18;;;;;;;;;;1903617;75;21127;-78
2022/10/23 10:50:37;;;;;;;17.07;13.00;;;;;;;;;;1863935;75;21162;-77
2022/10/23 10:53:10;;;;;;;17.27;12.05;;;;;;;;;;1902680;74;21212;-78
2022/10/23 10:55:41;;;;;;;16.75;12.63;;;;;;;;;;1899575;74;21680;-77
2022/10/23 10:58:22;;;;;;;17.45;12.88;;;;;;;;;;1903653;74;21128;-78
2022/10/23 11:00:54;;;;;;;19.17;13.95;;;;;;;;;;1885176;75;21183;-78
2022/10/23 11:03:32;;;;;;;24.85;15.68;;;;;;;;;;1810684;78;22284;-78
2022/10/23 11:06:08;;;;;;;19.73;15.45;;;;;;;;;;1909928;73;21120;-78
2022/10/23 11:08:40;;;;;;;18.48;14.25;;;;;;;;;;1897100;75;21182;-77
2022/10/23 11:14:26;;;;;;;21.27;13.35;;;;;;;;;;1912808;74;21098;-77
2022/10/23 11:17:01;;;;;;;16.67;13.28;;;;;;;;;;1824894;78;21121;-77
2022/10/23 11:19:33;;;;;;;16.27;13.38;;;;;;;;;;1917559;75;21144;-77
2022/10/23 11:22:04;;;;;;;18.25;13.20;;;;;;;;;;1894027;73;21153;-77
2022/10/23 11:24:37;;;;;;;17.20;12.05;;;;;;;;;;1903392;75;21223;-78
2022/10/23 11:27:28;;;;;;;18.92;13.18;;;;;;;;;;1913817;74;21270;-78
2022/10/23 11:30:03;;;;;;;20.50;13.03;;;;;;;;;;1909295;73;21590;-78
2022/10/23 11:32:52;;;;;;;19.60;13.93;;;;;;;;;;1905166;75;21203;-78
2022/10/23 11:35:29;;;;;;;18.80;13.72;;;;;;;;;;1908446;75;21860;-79
2022/10/23 11:38:02;;;;;;;16.53;12.97;;;;;;;;;;1898878;73;21141;-77
2022/10/23 11:40:32;;;;;;;20.82;12.68;;;;;;;;;;1902103;74;21596;-78
2022/10/23 11:43:04;;;;;;;16.12;13.25;;;;;;;;;;1876262;75;21108;-78
2022/10/23 11:45:36;;;;;;;18.95;13.75;;;;;;;;;;1901950;73;21125;-78
2022/10/23 11:48:16;;;;;;;20.80;13.95;;;;;;;;;;1905909;73;21142;-78
2022/10/23 11:50:48;;;;;;;17.42;14.03;;;;;;;;;;1895333;73;21129;-78
2022/10/23 11:53:25;;;;;;;19.60;14.98;;;;;;;;;;1919447;73;21138;-79
2022/10/23 11:56:15;;;;;;;20.92;15.50;;;;;;;;;;1899182;73;21111;-78
2022/10/23 11:58:56;;;;;;;24.75;17.70;;;;;;;;;;1901652;75;21222;-77
2022/10/23 12:01:33;;;;;;;25.17;19.55;;;;;;;;;;1914924;73;21105;-78
2022/10/23 12:04:03;;;;;;;27.35;19.35;;;;;;;;;;1908871;74;21594;-78
2022/10/23 12:06:34;;;;;;;23.07;18.20;;;;;;;;;;1815021;77;21163;-76
2022/10/23 12:09:06;;;;;;;29.80;19.25;;;;;;;;;;1871881;75;21201;-77
2022/10/23 12:11:44;;;;;;;26.00;17.95;;;;;;;;;;1885941;75;21062;-76
2022/10/23 12:14:28;;;;;;;28.55;18.80;;;;;;;;;;1894386;73;21202;-78
2022/10/23 12:16:59;;;;;;;24.67;18.25;;;;;;;;;;1909660;73;21123;-77
2022/10/23 12:19:31;;;;;;;27.22;18.70;;;;;;;;;;1901230;73;21213;-77
2022/10/23 12:22:04;;;;;;;28.32;19.32;;;;;;;;;;1903274;73;21133;-79
2022/10/23 12:24:39;;;;;;;27.07;17.62;;;;;;;;;;1898343;74;21140;-78
2022/10/23 12:27:10;;;;;;;24.02;18.42;;;;;;;;;;1903857;73;21127;-77
2022/10/23 12:29:47;;;;;;;26.97;18.35;;;;;;;;;;1903848;73;21155;-79
2022/10/23 12:32:35;;;;;;;25.60;17.70;;;;;;;;;;1866351;75;21076;-78
2022/10/23 12:35:19;;;;;;;24.87;18.07;;;;;;;;;;1908167;73;21551;-78
2022/10/23 12:37:59;;;;;;;23.30;17.70;;;;;;;;;;1908074;73;21117;-77
2022/10/23 12:40:30;;;;;;;30.55;19.00;;;;;;;;;;1904935;73;21510;-77
2022/10/23 12:43:00;;;;;;;26.42;19.07;;;;;;;;;;1908797;73;21133;-77
2022/10/23 12:45:32;;;;;;;23.92;18.05;;;;;;;;;;1908075;73;21238;-84
2022/10/23 12:48:22;;;;;;;26.45;18.87;;;;;;;;;;1850969;76;21256;-83
2022/10/23 12:50:59;;;;;;;25.37;18.07;;;;;;;;;;1850204;76;21179;-83
2022/10/23 12:53:49;;;;;;;25.10;19.05;;;;;;;;;;1841440;77;21305;-82
2022/10/23 12:56:43;;;;;;;;;;;;;;;;;;1846052;76;22104;-86
2022/10/23 12:59:04;;;;;;;27.10;19.12;;;;;;;;;;1837819;76;20274;-83
2022/10/23 13:01:46;;;;;;;29.15;19.65;;;;;;;;;;1845927;76;21147;-85
2022/10/23 13:04:32;;;;;;;24.87;18.87;;;;;;;;;;1839861;76;21219;-84
2022/10/23 13:07:22;;;;;;;26.35;20.08;;;;;;;;;;1830884;76;21118;-83
2022/10/23 13:10:12;;;;;;;28.57;19.20;;;;;;;;;;1851785;76;21247;-82
2022/10/23 13:13:10;;;;;;;26.00;19.23;;;;;;;;;;1827000;77;21906;-83
2022/10/23 13:15:59;;;;;;;25.45;18.65;;;;;;;;;;1774285;78;21181;-82
2022/10/23 13:18:30;;;;;;;26.48;18.52;;;;;;;;;;1810159;77;21620;-84
2022/10/23 13:21:07;;;;;;;23.52;19.42;;;;;;;;;;1898418;73;21073;-83
2022/10/23 13:23:40;;;;;;;29.05;20.35;;;;;;;;;;1910311;74;21161;-82
2022/10/23 13:26:28;;;;;;;29.35;19.80;;;;;;;;;;1918040;73;21125;-83
2022/10/23 13:29:03;;;;;;;29.65;20.08;;;;;;;;;;1910729;75;21102;-82
2022/10/23 13:31:41;;;;;;;24.40;19.15;;;;;;;;;;1899500;75;21051;-83
2022/10/23 13:34:16;;;;;;;28.90;19.67;;;;;;;;;;1906168;74;21101;-83
2022/10/23 13:36:51;;;;;;;25.80;19.32;;;;;;;;;;1901971;73;21116;-83
2022/10/23 13:39:26;;;;;;;27.55;18.75;;;;;;;;;;1906155;75;21107;-84
2022/10/23 13:41:56;;;;;;;28.55;17.73;;;;;;;;;;1907872;74;21184;-83
2022/10/23 13:44:36;;;;;;;24.98;17.55;;;;;;;;;;1889753;74;21202;-86
2022/10/23 13:47:06;;;;;;;21.62;17.27;;;;;;;;;;1885287;75;21490;-83
2022/10/23 13:49:36;;;;;;;24.92;18.25;;;;;;;;;;1846981;76;21181;-84
2022/10/23 13:52:10;;;;;;;32.48;18.02;;;;;;;;;;1859430;76;21179;-82
2022/10/23 13:54:42;;;;;;;24.72;16.85;;;;;;;;;;1889238;75;21125;-84
2022/10/23 13:57:14;;;;;;;26.55;17.67;;;;;;;;;;1864288;76;21136;-83
2022/10/23 13:59:44;;;;;;;22.87;16.77;;;;;;;;;;1893443;73;21083;-83
2022/10/23 14:02:15;;;;;;;19.57;15.88;;;;;;;;;;1902411;75;21120;-84
2022/10/23 14:04:46;;;;;;;26.73;17.27;;;;;;;;;;1862314;76;21514;-81
2022/10/23 14:07:16;;;;;;;22.32;16.62;;;;;;;;;;1870499;76;21146;-84
2022/10/23 14:09:49;;;;;;;25.90;17.15;;;;;;;;;;1863215;76;21169;-85
2022/10/23 14:12:19;;;;;;;24.30;17.20;;;;;;;;;;1897292;74;21234;-84
2022/10/23 14:14:53;;;;;;;23.47;17.37;;;;;;;;;;1866435;76;21312;-84
2022/10/23 14:17:23;;;;;;;27.20;16.97;;;;;;;;;;1895765;75;21224;-83
2022/10/23 14:19:54;;;;;;;22.07;16.93;;;;;;;;;;1856205;76;21157;-86
2022/10/23 14:22:24;;;;;;;21.25;16.00;;;;;;;;;;1862327;76;21197;-82
2022/10/23 14:24:55;;;;;;;24.52;17.70;;;;;;;;;;1859871;76;21208;-82
2022/10/23 14:27:25;;;;;;;23.57;16.62;;;;;;;;;;1901487;74;21156;-83
2022/10/23 14:29:56;;;;;;;22.25;17.15;;;;;;;;;;1901543;75;21098;-82
2022/10/23 14:32:26;;;;;;;28.83;19.17;;;;;;;;;;1889948;74;21156;-83
2022/10/23 14:34:56;;;;;;;28.73;19.32;;;;;;;;;;1889665;75;21194;-80
2022/10/23 14:37:29;;;;;;;31.05;20.52;;;;;;;;;;1854265;76;21158;-83
2022/10/23 14:39:59;;;;;;;29.30;21.17;;;;;;;;;;1853100;76;21141;-84
2022/10/23 14:42:33;;;;;;;29.10;22.05;;;;;;;;;;1898572;75;21192;-83
2022/10/23 14:45:04;;;;;;;25.90;20.27;;;;;;;;;;1859988;76;21534;-84
2022/10/23 14:47:35;;;;;;;29.52;21.05;;;;;;;;;;1906942;74;21162;-83
2022/10/23 14:50:06;;;;;;;29.15;21.70;;;;;;;;;;1888221;74;21343;-82
2022/10/23 14:52:36;;;;;;;28.30;20.65;;;;;;;;;;1895139;75;21218;-83
2022/10/23 14:55:07;;;;;;;28.42;21.05;;;;;;;;;;1864516;76;21086;-84
2022/10/23 14:57:37;;;;;;;25.65;20.97;;;;;;;;;;1899549;74;21190;-83
2022/10/23 15:00:08;;;;;;;32.55;24.27;;;;;;;;;;1856325;76;21179;-81
2022/10/23 15:02:39;;;;;;;30.05;24.00;;;;;;;;;;1912306;75;21171;-82